Time;durP1;ratioP1;P1;durP2;ratioP2;P2;SDS_P1;SDS_P2;PMS_P1;PMS_P2;Temp;Humidity;BMP_temperature;BMP_pressure;BME280_temperature;BME280_humidity;BME280_pressure;Samples;Min_cycle;Max_cycle;Signal;HPM_P1;HPM_P2
2021/10/14 00:00:42;;;;;;;9.80;4.60;;;6.00;95.60;;;;;;5046001;28;20228;-75
2021/10/14 00:03:11;;;;;;;9.73;5.20;;;5.90;95.70;;;;;;5038049;28;20197;-75
2021/10/14 00:05:37;;;;;;;9.20;5.00;;;5.90;95.80;;;;;;5037805;28;20251;-74
2021/10/14 00:08:03;;;;;;;8.47;5.10;;;5.90;95.70;;;;;;5036232;28;20921;-75
2021/10/14 00:10:29;;;;;;;7.83;4.80;;;5.90;95.60;;;;;;5035918;28;20255;-75
2021/10/14 00:12:56;;;;;;;7.07;4.77;;;5.90;95.50;;;;;;5034770;28;20462;-76
2021/10/14 00:15:22;;;;;;;8.63;4.63;;;5.90;95.60;;;;;;5034220;28;20618;-74
2021/10/14 00:17:48;;;;;;;7.90;4.67;;;6.00;95.40;;;;;;5036081;28;20420;-75
2021/10/14 00:20:14;;;;;;;11.97;5.53;;;5.90;95.30;;;;;;5034541;28;20494;-74
2021/10/14 00:22:40;;;;;;;10.83;5.80;;;5.90;95.50;;;;;;5034528;28;20420;-76
2021/10/14 00:25:06;;;;;;;9.10;5.30;;;5.90;95.50;;;;;;5035059;28;20430;-74
2021/10/14 00:27:32;;;;;;;9.47;4.73;;;5.90;95.60;;;;;;5035780;28;20196;-75
2021/10/14 00:29:58;;;;;;;10.37;5.87;;;5.90;95.60;;;;;;5034110;28;20517;-74
2021/10/14 00:32:24;;;;;;;15.33;5.90;;;5.80;95.40;;;;;;5035735;28;20540;-74
2021/10/14 00:34:49;;;;;;;8.97;4.70;;;5.80;95.50;;;;;;5034645;28;20181;-74
2021/10/14 00:37:15;;;;;;;6.90;4.83;;;5.90;95.60;;;;;;5036025;28;20184;-75
2021/10/14 00:39:41;;;;;;;9.30;5.20;;;5.90;95.50;;;;;;5035047;28;20236;-74
2021/10/14 00:42:07;;;;;;;14.10;6.27;;;5.90;95.50;;;;;;5037005;28;20212;-75
2021/10/14 00:44:47;;;;;;;9.93;5.53;;;6.00;95.30;;;;;;5043058;28;20187;-75
2021/10/14 00:47:18;;;;;;;8.47;4.93;;;5.90;95.30;;;;;;5037468;28;20219;-75
2021/10/14 00:49:44;;;;;;;8.87;4.97;;;5.80;95.40;;;;;;5035190;28;20536;-76
2021/10/14 00:52:10;;;;;;;8.87;5.30;;;5.90;95.60;;;;;;5033880;28;20478;-76
2021/10/14 00:54:35;;;;;;;9.97;5.57;;;5.90;95.50;;;;;;5035351;28;20427;-75
2021/10/14 00:57:01;;;;;;;7.50;5.07;;;5.90;95.40;;;;;;5035171;28;20420;-76
2021/10/14 00:59:29;;;;;;;8.30;5.50;;;5.90;95.40;;;;;;5033590;28;20722;-76
2021/10/14 01:01:55;;;;;;;11.90;4.93;;;5.90;95.40;;;;;;5035381;28;20443;-76
2021/10/14 01:04:21;;;;;;;12.97;5.27;;;5.90;95.30;;;;;;5036654;28;20795;-75
2021/10/14 01:06:46;;;;;;;11.57;4.67;;;5.90;95.20;;;;;;5038274;28;20419;-74
2021/10/14 01:09:12;;;;;;;9.33;5.30;;;5.80;95.20;;;;;;5036664;28;20170;-75
2021/10/14 01:11:39;;;;;;;8.83;4.93;;;5.80;95.20;;;;;;5034818;28;20255;-74
2021/10/14 01:14:05;;;;;;;15.60;5.30;;;5.80;95.40;;;;;;5033399;28;20412;-75
2021/10/14 01:16:41;;;;;;;10.97;5.40;;;5.80;95.30;;;;;;5034448;28;20416;-75
2021/10/14 01:19:08;;;;;;;10.67;5.50;;;5.70;95.30;;;;;;5035126;28;20822;-74
2021/10/14 01:21:34;;;;;;;10.40;5.00;;;5.70;95.40;;;;;;5033145;28;20478;-74
2021/10/14 01:24:00;;;;;;;11.20;5.53;;;5.70;95.60;;;;;;5033209;28;20412;-74
2021/10/14 01:26:27;;;;;;;10.73;5.33;;;5.70;95.50;;;;;;5034389;28;20502;-74
2021/10/14 01:28:53;;;;;;;9.63;5.03;;;5.70;95.50;;;;;;5034175;28;20500;-75
2021/10/14 01:31:21;;;;;;;9.20;5.40;;;5.70;95.50;;;;;;5034353;28;20902;-74
2021/10/14 01:33:46;;;;;;;11.50;5.23;;;5.70;95.60;;;;;;5033041;28;20431;-75
2021/10/14 01:36:12;;;;;;;12.67;5.53;;;5.80;95.60;;;;;;5034463;28;20416;-73
2021/10/14 01:38:38;;;;;;;9.90;5.43;;;5.80;95.60;;;;;;5033710;28;20668;-74
2021/10/14 01:41:04;;;;;;;6.53;4.50;;;5.70;95.60;;;;;;5032183;28;20228;-74
2021/10/14 01:43:29;;;;;;;10.47;5.13;;;5.70;95.70;;;;;;5034003;28;20173;-75
2021/10/14 01:45:55;;;;;;;11.17;5.10;;;5.70;95.90;;;;;;5033839;28;20495;-75
2021/10/14 01:48:22;;;;;;;7.73;4.63;;;5.70;95.90;;;;;;5034314;28;20187;-76
2021/10/14 01:50:48;;;;;;;9.07;4.67;;;5.70;95.80;;;;;;5032377;28;20439;-75
2021/10/14 01:53:14;;;;;;;10.50;5.40;;;5.70;95.80;;;;;;5033845;28;20438;-74
2021/10/14 01:55:40;;;;;;;8.80;4.37;;;5.70;95.70;;;;;;5032967;28;20185;-74
2021/10/14 01:58:06;;;;;;;10.60;5.47;;;5.70;95.70;;;;;;5031874;28;20470;-74
2021/10/14 02:00:32;;;;;;;9.20;4.87;;;5.70;95.70;;;;;;5033595;28;20499;-75
2021/10/14 02:02:58;;;;;;;8.53;4.70;;;5.60;95.40;;;;;;5033344;28;20416;-73
2021/10/14 02:05:24;;;;;;;10.30;5.17;;;5.60;95.50;;;;;;5032691;28;20590;-74
2021/10/14 02:07:49;;;;;;;7.13;3.87;;;5.60;95.60;;;;;;5032306;28;20181;-74
2021/10/14 02:10:15;;;;;;;10.53;4.37;;;5.60;95.60;;;;;;5032804;28;20580;-75
2021/10/14 02:12:41;;;;;;;9.53;4.53;;;5.60;95.50;;;;;;5032829;28;20600;-74
2021/10/14 02:15:07;;;;;;;8.63;4.87;;;5.60;95.60;;;;;;5032744;28;21588;-74
2021/10/14 02:17:33;;;;;;;6.70;4.20;;;5.60;95.50;;;;;;5030947;28;20240;-74
2021/10/14 02:19:58;;;;;;;10.50;4.40;;;5.60;95.60;;;;;;5034024;28;20463;-74
2021/10/14 02:22:24;;;;;;;8.83;5.20;;;5.60;95.50;;;;;;5031098;28;20239;-74
2021/10/14 02:24:50;;;;;;;10.23;5.63;;;5.40;95.60;;;;;;5031602;28;20181;-76
2021/10/14 02:27:15;;;;;;;7.40;4.70;;;5.50;95.80;;;;;;5031247;28;20189;-74
2021/10/14 02:29:41;;;;;;;9.50;4.67;;;5.50;95.70;;;;;;5031704;28;20559;-74
2021/10/14 02:32:07;;;;;;;7.30;4.30;;;5.40;95.80;;;;;;5030307;28;20707;-75
2021/10/14 02:34:33;;;;;;;8.30;4.77;;;5.50;95.80;;;;;;5030721;28;20181;-75
2021/10/14 02:36:58;;;;;;;10.23;4.80;;;5.40;95.80;;;;;;5031867;28;20338;-74
2021/10/14 02:39:24;;;;;;;9.93;4.63;;;5.50;95.90;;;;;;5031472;28;20594;-74
2021/10/14 02:41:50;;;;;;;9.90;5.27;;;5.50;95.80;;;;;;5031431;28;20288;-74
2021/10/14 02:44:15;;;;;;;8.70;4.60;;;5.50;95.70;;;;;;5031580;28;20185;-73
2021/10/14 02:46:41;;;;;;;7.83;5.17;;;5.50;95.70;;;;;;5031137;28;20185;-74
2021/10/14 02:49:07;;;;;;;9.00;5.30;;;5.50;95.60;;;;;;5030868;28;20277;-73
2021/10/14 02:51:32;;;;;;;9.03;4.93;;;5.40;95.30;;;;;;5030453;28;20211;-75
2021/10/14 02:53:58;;;;;;;12.17;5.50;;;5.40;95.30;;;;;;5031272;28;20189;-75
2021/10/14 02:56:24;;;;;;;7.90;4.80;;;5.30;95.50;;;;;;5031462;28;20485;-74
2021/10/14 02:58:50;;;;;;;9.47;5.20;;;5.30;95.70;;;;;;5030408;28;20216;-75
2021/10/14 03:01:15;;;;;;;6.73;4.70;;;5.20;95.80;;;;;;5031106;28;20220;-73
2021/10/14 03:03:41;;;;;;;9.53;5.27;;;5.20;95.90;;;;;;5030146;28;20212;-74
2021/10/14 03:06:07;;;;;;;9.60;4.53;;;5.20;95.80;;;;;;5030842;28;20598;-74
2021/10/14 03:08:32;;;;;;;9.30;5.63;;;5.30;95.70;;;;;;5030164;28;20542;-74
2021/10/14 03:10:58;;;;;;;9.27;4.93;;;5.30;95.60;;;;;;5031976;28;20212;-74
2021/10/14 03:13:24;;;;;;;10.63;4.73;;;5.20;95.70;;;;;;5029410;28;20192;-75
2021/10/14 03:15:50;;;;;;;7.80;4.53;;;5.20;95.80;;;;;;5030029;28;20267;-74
2021/10/14 03:18:16;;;;;;;13.97;4.73;;;5.20;95.80;;;;;;5032988;28;20976;-76
2021/10/14 03:20:41;;;;;;;8.20;4.90;;;5.20;95.70;;;;;;5032418;28;20472;-76
2021/10/14 03:23:07;;;;;;;18.03;4.70;;;5.20;95.60;;;;;;5032594;28;20182;-76
2021/10/14 03:25:33;;;;;;;10.20;5.77;;;5.20;95.60;;;;;;5032976;28;20284;-75
2021/10/14 03:27:59;;;;;;;11.20;5.67;;;5.10;95.70;;;;;;5031016;28;20185;-73
2021/10/14 03:30:24;;;;;;;8.60;4.90;;;5.10;95.90;;;;;;5031549;28;20220;-75
2021/10/14 03:32:50;;;;;;;10.47;5.03;;;5.10;96.00;;;;;;5032222;28;20242;-75
2021/10/14 03:35:16;;;;;;;11.07;5.53;;;5.10;96.00;;;;;;5031194;28;20217;-73
2021/10/14 03:37:41;;;;;;;8.87;5.37;;;5.10;96.00;;;;;;5033686;28;20569;-73
2021/10/14 03:40:08;;;;;;;7.87;5.73;;;5.00;95.90;;;;;;5031677;28;20212;-74
2021/10/14 03:42:33;;;;;;;9.43;5.30;;;5.00;96.00;;;;;;5030883;28;20201;-75
2021/10/14 03:44:59;;;;;;;8.03;5.40;;;5.00;96.10;;;;;;5032957;28;20185;-74
2021/10/14 03:47:25;;;;;;;10.97;4.90;;;5.00;96.20;;;;;;5035740;28;20195;-76
2021/10/14 03:49:51;;;;;;;14.50;5.20;;;5.00;96.20;;;;;;5037428;28;20205;-75
2021/10/14 03:52:16;;;;;;;10.67;5.00;;;5.00;96.00;;;;;;5035169;28;20273;-74
2021/10/14 03:54:42;;;;;;;9.37;4.60;;;5.00;95.90;;;;;;5034200;28;20455;-75
2021/10/14 03:57:08;;;;;;;9.20;5.10;;;5.00;95.90;;;;;;5033482;28;20235;-74
2021/10/14 03:59:34;;;;;;;8.20;5.10;;;5.00;95.90;;;;;;5037701;28;20790;-76
2021/10/14 04:01:59;;;;;;;9.83;4.73;;;5.00;95.80;;;;;;5038278;28;20211;-74
2021/10/14 04:04:25;;;;;;;9.90;4.70;;;4.90;95.80;;;;;;5038197;28;20253;-75
2021/10/14 04:06:51;;;;;;;8.33;4.90;;;5.00;95.80;;;;;;5037846;28;20834;-75
2021/10/14 04:09:16;;;;;;;12.03;5.23;;;5.00;95.30;;;;;;5038331;28;20866;-75
2021/10/14 04:11:42;;;;;;;7.87;4.40;;;4.90;95.20;;;;;;5036333;28;20197;-73
2021/10/14 04:14:08;;;;;;;9.23;5.40;;;4.90;95.30;;;;;;5035438;28;20181;-74
2021/10/14 04:16:33;;;;;;;9.00;5.47;;;4.80;95.60;;;;;;5035211;28;20189;-75
2021/10/14 04:18:59;;;;;;;9.23;4.80;;;4.80;95.70;;;;;;5033714;28;20185;-76
2021/10/14 04:21:25;;;;;;;9.00;5.43;;;4.80;95.80;;;;;;5036925;28;20249;-76
2021/10/14 04:23:51;;;;;;;8.03;5.20;;;4.80;95.80;;;;;;5035114;28;20177;-76
2021/10/14 04:26:17;;;;;;;7.57;4.50;;;4.90;95.80;;;;;;5034909;28;20426;-75
2021/10/14 04:28:43;;;;;;;12.20;4.67;;;5.00;95.80;;;;;;5035140;28;20268;-75
2021/10/14 04:31:09;;;;;;;9.80;5.03;;;4.90;95.60;;;;;;5035472;28;20505;-76
2021/10/14 04:33:35;;;;;;;7.43;4.53;;;5.00;95.40;;;;;;5033094;28;20220;-75
2021/10/14 04:36:04;;;;;;;8.20;5.30;;;5.00;95.20;;;;;;5036089;28;20455;-75
2021/10/14 04:38:31;;;;;;;11.63;5.40;;;5.00;95.10;;;;;;5019974;28;20249;-75
2021/10/14 04:40:57;;;;;;;9.30;5.00;;;5.00;95.10;;;;;;5037016;28;20471;-74
2021/10/14 04:43:23;;;;;;;11.40;5.73;;;5.10;95.00;;;;;;5036527;28;20438;-75
2021/10/14 04:45:50;;;;;;;7.53;4.40;;;5.10;95.00;;;;;;5035046;28;20928;-75
2021/10/14 04:48:17;;;;;;;10.13;5.50;;;5.10;95.00;;;;;;5034791;28;20423;-75
2021/10/14 04:50:42;;;;;;;9.50;5.13;;;5.10;94.90;;;;;;5033107;28;21001;-74
2021/10/14 04:53:08;;;;;;;10.50;5.70;;;5.10;94.90;;;;;;5032201;28;20428;-74
2021/10/14 04:55:34;;;;;;;8.10;4.70;;;5.10;95.10;;;;;;5032706;28;20196;-75
2021/10/14 04:58:00;;;;;;;9.40;4.93;;;5.30;95.00;;;;;;5033959;28;20223;-73
2021/10/14 05:00:26;;;;;;;10.80;5.30;;;5.30;94.50;;;;;;5033254;28;20215;-75
2021/10/14 05:02:52;;;;;;;8.17;4.90;;;5.30;94.40;;;;;;5032977;28;20787;-75
2021/10/14 05:05:18;;;;;;;8.23;4.37;;;5.30;94.40;;;;;;5033131;28;20423;-75
2021/10/14 05:07:44;;;;;;;8.23;4.27;;;5.30;94.00;;;;;;5032880;28;20197;-74
2021/10/14 05:10:10;;;;;;;6.93;4.87;;;5.30;94.20;;;;;;5032563;28;20523;-74
2021/10/14 05:12:36;;;;;;;15.13;6.40;;;5.30;94.20;;;;;;5030765;28;20213;-75
2021/10/14 05:15:09;;;;;;;7.60;4.57;;;5.30;94.10;;;;;;5032712;28;20428;-76
2021/10/14 05:17:36;;;;;;;9.50;4.70;;;5.40;94.30;;;;;;5033939;28;20420;-75
2021/10/14 05:20:04;;;;;;;8.47;4.57;;;5.40;94.10;;;;;;5035193;28;20521;-75
2021/10/14 05:22:29;;;;;;;11.20;4.80;;;5.50;94.00;;;;;;5023163;28;20800;-76
2021/10/14 05:24:55;;;;;;;11.30;5.47;;;5.40;94.00;;;;;;5035025;28;20424;-75
2021/10/14 05:27:21;;;;;;;10.10;5.17;;;5.50;94.20;;;;;;5035484;28;20181;-75
2021/10/14 05:29:47;;;;;;;9.83;4.43;;;5.60;94.20;;;;;;5033032;28;20188;-75
2021/10/14 05:32:13;;;;;;;9.20;4.90;;;5.60;93.60;;;;;;5032706;28;20201;-74
2021/10/14 05:34:38;;;;;;;9.30;4.83;;;5.70;93.70;;;;;;5029778;28;20670;-75
2021/10/14 05:37:04;;;;;;;11.67;5.47;;;5.70;93.50;;;;;;5031928;28;20556;-75
2021/10/14 05:39:30;;;;;;;9.33;4.80;;;5.70;93.60;;;;;;5032834;28;20201;-74
2021/10/14 05:41:55;;;;;;;11.63;5.57;;;5.70;93.70;;;;;;5031936;28;20201;-75
2021/10/14 05:44:21;;;;;;;10.40;5.80;;;5.70;93.60;;;;;;5031007;28;20191;-74
2021/10/14 05:46:47;;;;;;;13.90;4.97;;;5.80;93.40;;;;;;5032121;28;20292;-75
2021/10/14 05:49:13;;;;;;;9.83;5.10;;;5.80;93.30;;;;;;5030919;28;20213;-74
2021/10/14 05:51:38;;;;;;;7.97;4.30;;;5.70;93.50;;;;;;5032156;28;20205;-75
2021/10/14 05:54:04;;;;;;;8.73;4.60;;;5.70;93.70;;;;;;5031945;28;20243;-74
2021/10/14 05:56:30;;;;;;;11.47;5.57;;;5.80;93.50;;;;;;5032826;28;20177;-76
2021/10/14 05:58:56;;;;;;;10.70;4.83;;;5.80;93.40;;;;;;5032673;28;20185;-75
2021/10/14 06:01:22;;;;;;;8.30;4.33;;;5.80;93.30;;;;;;5031745;28;21002;-75
2021/10/14 06:03:47;;;;;;;8.30;4.97;;;5.90;93.20;;;;;;5031713;28;20265;-76
2021/10/14 06:06:13;;;;;;;7.90;5.20;;;5.90;93.20;;;;;;5032276;28;20226;-75
2021/10/14 06:08:39;;;;;;;9.60;5.23;;;6.00;93.30;;;;;;5031657;28;20411;-75
2021/10/14 06:11:05;;;;;;;12.47;5.77;;;6.00;93.40;;;;;;5031494;28;20467;-74
2021/10/14 06:13:31;;;;;;;8.77;4.40;;;6.10;93.00;;;;;;5031695;28;20449;-76
2021/10/14 06:15:57;;;;;;;8.53;4.60;;;6.10;92.80;;;;;;5032165;28;20220;-74
2021/10/14 06:18:22;;;;;;;11.63;5.43;;;6.10;93.00;;;;;;5031705;28;20423;-75
2021/10/14 06:20:48;;;;;;;7.87;4.83;;;6.10;93.00;;;;;;5031454;28;21009;-75
2021/10/14 06:23:14;;;;;;;8.63;5.10;;;6.10;92.90;;;;;;5031314;28;20189;-76
2021/10/14 06:25:40;;;;;;;10.27;5.80;;;6.20;92.80;;;;;;5032328;28;20197;-75
2021/10/14 06:28:06;;;;;;;13.13;5.10;;;6.20;92.70;;;;;;5032060;28;21620;-75
2021/10/14 06:30:32;;;;;;;17.33;6.17;;;6.30;92.60;;;;;;5032827;28;20259;-78
2021/10/14 06:32:59;;;;;;;12.87;6.33;;;6.30;92.70;;;;;;5034486;28;20226;-77
2021/10/14 06:35:25;;;;;;;8.03;4.73;;;6.30;92.60;;;;;;5033665;28;20931;-77
2021/10/14 06:37:51;;;;;;;9.90;5.17;;;6.40;92.70;;;;;;5033990;28;20508;-78
2021/10/14 06:40:17;;;;;;;10.03;5.90;;;6.60;92.40;;;;;;5032605;28;20499;-78
2021/10/14 06:42:44;;;;;;;6.30;5.13;;;6.70;92.10;;;;;;5033712;28;20531;-77
2021/10/14 06:45:10;;;;;;;12.53;5.40;;;6.80;92.10;;;;;;5033503;28;20452;-78
2021/10/14 06:47:36;;;;;;;11.10;5.27;;;6.90;91.80;;;;;;5033038;28;20188;-77
2021/10/14 06:50:06;;;;;;;11.10;5.27;;;6.90;91.20;;;;;;5032130;28;20624;-77
2021/10/14 06:52:32;;;;;;;13.47;6.30;;;6.90;91.00;;;;;;5032998;28;20558;-77
2021/10/14 06:54:59;;;;;;;18.63;5.33;;;6.90;91.00;;;;;;5033993;28;20420;-79
2021/10/14 06:57:25;;;;;;;15.43;5.93;;;6.80;91.10;;;;;;5033666;28;20477;-75
2021/10/14 06:59:51;;;;;;;8.47;5.10;;;6.90;91.20;;;;;;5031729;28;20603;-77
2021/10/14 07:02:17;;;;;;;9.90;4.90;;;6.80;91.20;;;;;;5033412;28;20475;-76
2021/10/14 07:04:43;;;;;;;28.47;8.57;;;7.00;91.40;;;;;;5032757;28;20420;-77
2021/10/14 07:07:09;;;;;;;17.40;5.73;;;7.10;91.30;;;;;;5037191;28;20185;-78
2021/10/14 07:09:35;;;;;;;13.60;5.40;;;7.20;91.10;;;;;;5036685;28;20424;-77
2021/10/14 07:12:08;;;;;;;11.20;4.90;;;7.40;90.50;;;;;;5036510;28;20843;-77
2021/10/14 07:14:34;;;;;;;12.50;4.77;;;7.50;90.00;;;;;;5035954;28;20193;-76
2021/10/14 07:17:00;;;;;;;8.17;4.93;;;7.50;90.10;;;;;;5037442;28;20416;-78
2021/10/14 07:19:25;;;;;;;25.03;6.40;;;7.70;90.00;;;;;;5033324;28;20173;-74
2021/10/14 07:21:51;;;;;;;12.70;5.50;;;7.80;89.70;;;;;;5031991;28;20260;-74
2021/10/14 07:24:19;;;;;;;7.30;4.97;;;7.90;89.60;;;;;;5032009;28;20189;-73
2021/10/14 07:26:45;;;;;;;23.93;6.70;;;8.00;88.60;;;;;;5032317;28;20232;-74
2021/10/14 07:29:11;;;;;;;11.93;5.47;;;8.20;87.70;;;;;;5032868;28;20447;-72
2021/10/14 07:31:36;;;;;;;9.23;4.73;;;8.20;87.00;;;;;;5032842;28;20878;-73
2021/10/14 07:34:02;;;;;;;12.07;4.80;;;8.40;86.00;;;;;;5038525;28;20192;-73
2021/10/14 07:36:28;;;;;;;10.53;5.23;;;8.50;85.60;;;;;;5039537;28;20573;-75
2021/10/14 07:38:54;;;;;;;9.60;4.90;;;8.50;84.90;;;;;;5036417;28;20466;-73
2021/10/14 07:41:20;;;;;;;14.13;5.70;;;8.50;85.50;;;;;;5041560;28;20220;-72
2021/10/14 07:43:46;;;;;;;12.47;6.70;;;8.50;85.70;;;;;;5040918;28;20416;-73
2021/10/14 07:46:11;;;;;;;10.90;5.23;;;8.50;85.50;;;;;;5041014;28;20188;-73
2021/10/14 07:48:38;;;;;;;10.97;4.37;;;8.50;85.30;;;;;;5033838;28;20201;-73
2021/10/14 07:51:04;;;;;;;7.80;4.40;;;8.60;85.20;;;;;;5034430;28;20240;-74
2021/10/14 07:53:30;;;;;;;8.33;4.57;;;8.60;84.70;;;;;;5033805;28;20489;-75
2021/10/14 07:55:56;;;;;;;9.27;4.60;;;8.70;84.60;;;;;;5033595;28;20435;-73
2021/10/14 07:58:22;;;;;;;10.80;4.90;;;8.80;84.60;;;;;;5033438;28;20189;-73
2021/10/14 08:00:47;;;;;;;7.73;5.50;;;8.80;83.70;;;;;;5034018;28;20220;-74
2021/10/14 08:03:13;;;;;;;10.20;4.50;;;8.80;84.00;;;;;;5031894;28;20565;-74
2021/10/14 08:05:39;;;;;;;9.23;4.43;;;8.90;83.70;;;;;;5033734;28;20215;-73
2021/10/14 08:08:05;;;;;;;11.73;5.27;;;9.00;83.10;;;;;;5031818;28;20200;-73
2021/10/14 08:10:32;;;;;;;7.70;4.50;;;9.10;83.60;;;;;;5033032;28;20435;-72
2021/10/14 08:12:58;;;;;;;10.90;5.60;;;9.10;83.80;;;;;;5032945;28;20276;-73
2021/10/14 08:15:24;;;;;;;9.27;4.37;;;9.20;83.60;;;;;;5031764;28;20913;-73
2021/10/14 08:17:51;;;;;;;6.73;3.80;;;9.20;82.80;;;;;;5032878;28;20219;-73
2021/10/14 08:20:17;;;;;;;10.00;5.40;;;9.20;82.70;;;;;;5032742;28;20508;-72
2021/10/14 08:22:43;;;;;;;12.53;5.00;;;9.30;81.40;;;;;;5033364;28;20412;-74
2021/10/14 08:25:12;;;;;;;8.37;4.00;;;9.40;81.40;;;;;;5033057;28;20412;-73
2021/10/14 08:27:39;;;;;;;6.93;3.67;;;9.50;80.50;;;;;;5031132;28;20492;-74
2021/10/14 08:30:05;;;;;;;6.83;4.40;;;9.60;80.60;;;;;;5033093;28;20439;-74
2021/10/14 08:32:32;;;;;;;7.37;4.50;;;9.70;79.50;;;;;;5032512;28;20453;-73
2021/10/14 08:34:58;;;;;;;7.97;4.30;;;9.80;78.40;;;;;;5029800;28;20428;-73
2021/10/14 08:37:24;;;;;;;6.13;4.50;;;9.80;78.90;;;;;;5032028;28;20922;-73
2021/10/14 08:39:51;;;;;;;6.37;4.13;;;9.80;79.00;;;;;;5032216;28;20479;-74
2021/10/14 08:42:17;;;;;;;8.60;3.60;;;9.90;79.30;;;;;;5031786;28;20197;-74
2021/10/14 08:44:43;;;;;;;6.43;4.07;;;9.90;79.20;;;;;;5031670;28;20491;-73
2021/10/14 08:47:12;;;;;;;5.67;3.87;;;9.90;79.00;;;;;;5032032;28;20810;-74
2021/10/14 08:49:46;;;;;;;10.70;4.63;;;10.00;79.20;;;;;;5032228;28;20411;-74
2021/10/14 08:52:13;;;;;;;8.07;3.80;;;10.00;79.00;;;;;;5030603;28;20457;-73
2021/10/14 08:54:40;;;;;;;7.40;3.80;;;10.10;79.00;;;;;;5032518;28;20423;-74
2021/10/14 08:57:06;;;;;;;13.77;4.93;;;10.10;79.70;;;;;;5031862;28;20424;-73
2021/10/14 08:59:32;;;;;;;14.43;5.40;;;10.20;78.10;;;;;;5032196;28;20455;-74
2021/10/14 09:02:10;;;;;;;18.13;5.27;;;10.40;78.10;;;;;;5031425;28;20930;-74
2021/10/14 09:04:58;;;;;;;8.93;4.40;;;10.40;77.00;;;;;;5032294;28;20213;-73
2021/10/14 09:07:28;;;;;;;7.77;4.00;;;10.60;76.70;;;;;;5031675;28;20515;-72
2021/10/14 09:10:01;;;;;;;5.37;3.20;;;10.80;76.50;;;;;;5030884;28;20454;-73
2021/10/14 09:12:35;;;;;;;14.83;4.40;;;10.90;76.10;;;;;;5031091;28;20434;-73
2021/10/14 09:15:07;;;;;;;13.10;3.70;;;11.00;75.80;;;;;;5032570;28;20473;-74
2021/10/14 09:17:54;;;;;;;33.97;7.00;;;11.10;75.80;;;;;;5033501;28;20467;-75
2021/10/14 09:20:29;;;;;;;12.90;3.93;;;11.40;75.80;;;;;;5031411;28;20560;-75
2021/10/14 09:22:59;;;;;;;18.57;4.53;;;11.50;73.30;;;;;;5037902;28;20471;-73
2021/10/14 09:25:46;;;;;;;5.63;3.07;;;11.60;73.00;;;;;;5040006;28;20412;-74
2021/10/14 09:28:23;;;;;;;8.87;3.80;;;11.80;72.90;;;;;;5037098;28;20411;-74
2021/10/14 09:30:50;;;;;;;9.37;4.30;;;12.00;71.70;;;;;;5035499;28;20472;-73
2021/10/14 09:33:39;;;;;;;8.83;3.60;;;12.10;71.40;;;;;;5035985;28;20448;-75
2021/10/14 09:36:26;;;;;;;8.00;4.13;;;12.30;70.40;;;;;;5036751;28;20420;-73
2021/10/14 09:39:06;;;;;;;10.60;4.30;;;12.30;70.70;;;;;;5034748;28;20432;-74
2021/10/14 09:41:38;;;;;;;5.70;4.17;;;12.30;71.30;;;;;;5033553;28;20475;-74
2021/10/14 09:44:22;;;;;;;7.57;3.77;;;12.30;71.40;;;;;;5033496;28;20420;-73
2021/10/14 09:46:50;;;;;;;7.87;3.70;;;12.30;71.10;;;;;;5027050;28;20603;-74
2021/10/14 09:49:32;;;;;;;8.00;3.27;;;12.30;70.70;;;;;;5032401;28;20431;-74
2021/10/14 09:52:00;;;;;;;6.10;3.23;;;12.30;70.70;;;;;;5031374;28;20869;-74
2021/10/14 09:54:30;;;;;;;9.03;3.77;;;12.30;70.70;;;;;;5031269;28;20412;-73
2021/10/14 09:56:56;;;;;;;9.07;4.37;;;12.30;70.50;;;;;;5031081;28;20416;-75
2021/10/14 09:59:22;;;;;;;6.17;3.27;;;12.40;69.80;;;;;;5031016;28;20411;-74
2021/10/14 10:01:50;;;;;;;27.57;6.03;;;12.40;69.70;;;;;;5031365;28;20475;-74
2021/10/14 10:04:21;;;;;;;21.93;5.27;;;12.50;69.70;;;;;;5029670;28;20424;-74
2021/10/14 10:06:49;;;;;;;32.43;6.70;;;12.50;68.90;;;;;;5031177;28;20424;-74
2021/10/14 10:09:18;;;;;;;10.60;3.80;;;12.50;68.90;;;;;;5031203;28;20431;-74
2021/10/14 10:11:47;;;;;;;7.20;3.00;;;12.50;68.80;;;;;;5029278;28;20463;-73
2021/10/14 10:14:14;;;;;;;3.90;2.93;;;12.60;68.50;;;;;;5029806;28;20423;-75
2021/10/14 10:17:14;;;;;;;8.50;2.93;;;12.70;68.60;;;;;;5031193;28;20416;-73
2021/10/14 10:19:49;;;;;;;5.10;2.70;;;13.00;66.40;;;;;;5025397;28;20428;-75
2021/10/14 10:22:33;;;;;;;7.07;3.00;;;13.30;64.80;;;;;;5028341;28;20459;-74
2021/10/14 10:25:25;;;;;;;2.80;2.20;;;13.70;64.20;;;;;;5030222;28;20422;-75
2021/10/14 10:28:01;;;;;;;70.30;19.07;;;14.20;61.90;;;;;;5023634;28;20993;-75
2021/10/14 10:30:38;;;;;;;3.97;2.70;;;14.60;61.50;;;;;;5032449;28;20443;-72
2021/10/14 10:33:07;;;;;;;7.10;2.43;;;15.10;58.10;;;;;;5027795;28;20432;-71
2021/10/14 10:35:46;;;;;;;5.30;2.30;;;15.00;57.20;;;;;;5026887;28;20482;-72
2021/10/14 10:38:27;;;;;;;5.83;2.70;;;15.10;57.70;;;;;;5030268;28;20444;-74
2021/10/14 10:40:56;;;;;;;6.70;2.67;;;15.10;58.00;;;;;;5030855;28;20472;-73
2021/10/14 10:43:29;;;;;;;6.47;1.97;;;15.10;57.60;;;;;;5027010;28;20526;-74
2021/10/14 10:45:57;;;;;;;4.40;2.60;;;15.00;58.00;;;;;;5029020;28;20442;-74
2021/10/14 10:48:36;;;;;;;2.90;2.47;;;15.10;58.20;;;;;;5028442;28;20434;-73
2021/10/14 10:51:03;;;;;;;19.67;4.80;;;15.30;58.10;;;;;;5028288;28;20439;-74
2021/10/14 10:53:42;;;;;;;12.83;4.43;;;15.70;57.30;;;;;;5029164;28;20424;-73
2021/10/14 10:56:30;;;;;;;11.37;3.97;;;16.40;56.10;;;;;;5032471;28;20586;-73
2021/10/14 10:58:57;;;;;;;15.13;3.07;;;17.10;54.10;;;;;;5031417;28;20429;-74
2021/10/14 11:01:23;;;;;;;6.77;2.67;;;16.90;52.20;;;;;;5026070;28;20499;-74
2021/10/14 11:03:53;;;;;;;4.13;2.10;;;16.70;53.20;;;;;;5027935;28;20515;-73
2021/10/14 11:06:19;;;;;;;42.70;8.43;;;16.60;53.70;;;;;;5028345;28;20793;-74
2021/10/14 11:08:45;;;;;;;3.30;2.90;;;16.60;54.60;;;;;;5030420;28;20421;-74
2021/10/14 11:11:13;;;;;;;10.07;3.00;;;16.70;53.60;;;;;;5034692;28;20447;-73
2021/10/14 11:13:45;;;;;;;3.87;2.03;;;16.50;53.70;;;;;;5038936;28;20177;-73
2021/10/14 11:16:12;;;;;;;2.63;2.30;;;16.20;54.20;;;;;;5038325;28;20427;-74
2021/10/14 11:18:40;;;;;;;5.40;2.23;;;16.20;54.20;;;;;;5038356;28;20878;-73
2021/10/14 11:21:08;;;;;;;4.43;2.30;;;16.50;53.80;;;;;;5038243;28;20461;-74
2021/10/14 11:23:42;;;;;;;4.23;2.57;;;16.40;54.10;;;;;;5036559;28;20419;-74
2021/10/14 11:26:09;;;;;;;3.80;2.83;;;16.30;54.80;;;;;;5035696;28;20445;-74
2021/10/14 11:29:07;;;;;;;5.80;2.77;;;16.40;54.50;;;;;;5039408;28;20432;-75
2021/10/14 11:31:41;;;;;;;3.03;2.30;;;16.10;55.60;;;;;;5041358;28;20589;-74
2021/10/14 11:34:14;;;;;;;4.27;2.43;;;16.00;55.80;;;;;;5037515;28;20428;-73
2021/10/14 11:36:55;;;;;;;4.40;2.80;;;16.20;55.80;;;;;;5032840;28;20432;-74
2021/10/14 11:39:23;;;;;;;4.40;2.83;;;16.50;55.60;;;;;;5033695;28;20479;-75
2021/10/14 11:41:57;;;;;;;7.27;2.93;;;16.90;56.50;;;;;;5033125;28;20483;-73
2021/10/14 11:44:26;;;;;;;9.53;3.60;;;17.40;54.20;;;;;;5033953;28;22205;-75
2021/10/14 11:46:52;;;;;;;7.37;4.00;;;17.60;52.50;;;;;;5033316;28;20431;-75
2021/10/14 11:49:18;;;;;;;5.07;3.73;;;17.50;53.20;;;;;;5033547;28;20810;-73
2021/10/14 11:51:44;;;;;;;8.00;3.43;;;17.50;53.40;;;;;;5033261;28;20208;-74
2021/10/14 11:54:15;;;;;;;7.83;3.60;;;17.30;54.50;;;;;;5031618;28;20265;-74
2021/10/14 11:56:51;;;;;;;4.53;3.40;;;17.40;54.00;;;;;;5033010;28;20416;-75
2021/10/14 11:59:19;;;;;;;5.67;3.53;;;17.50;54.80;;;;;;5032048;28;20435;-75
2021/10/14 12:02:11;;;;;;;5.20;4.03;;;17.80;54.20;;;;;;5031624;28;20471;-73
2021/10/14 12:04:50;;;;;;;8.50;4.17;;;17.40;53.60;;;;;;5025311;28;20508;-75
2021/10/14 12:07:21;;;;;;;5.87;3.70;;;17.60;53.60;;;;;;5033427;28;20415;-73
2021/10/14 12:09:47;;;;;;;6.73;3.87;;;17.50;53.70;;;;;;5033337;28;20453;-73
2021/10/14 12:12:18;;;;;;;5.40;3.87;;;17.20;54.50;;;;;;5034941;28;20497;-74
2021/10/14 12:14:44;;;;;;;5.97;3.20;;;17.20;54.10;;;;;;5036264;28;20425;-73
2021/10/14 12:17:18;;;;;;;4.97;3.00;;;16.80;55.20;;;;;;5035952;28;20410;-74
2021/10/14 12:19:48;;;;;;;5.60;3.40;;;16.80;55.40;;;;;;5032765;28;20177;-74
2021/10/14 12:22:19;;;;;;;11.13;3.77;;;16.50;56.20;;;;;;5034117;28;20447;-73
2021/10/14 12:24:55;;;;;;;5.47;3.53;;;16.70;55.40;;;;;;5036670;28;20895;-74
2021/10/14 12:27:21;;;;;;;4.53;2.97;;;16.90;55.20;;;;;;5032471;28;20832;-74
2021/10/14 12:29:50;;;;;;;6.97;3.37;;;16.80;56.60;;;;;;5032659;28;20531;-73
2021/10/14 12:32:18;;;;;;;5.57;3.10;;;16.70;56.90;;;;;;5029703;28;20448;-75
2021/10/14 12:34:57;;;;;;;4.60;2.70;;;16.60;58.00;;;;;;5032930;28;20428;-73
2021/10/14 12:37:28;;;;;;;7.67;3.27;;;16.70;57.40;;;;;;5031433;28;20428;-74
2021/10/14 12:40:20;;;;;;;7.00;3.00;;;16.60;57.80;;;;;;5033229;28;20443;-73
2021/10/14 12:42:53;;;;;;;7.93;3.10;;;16.70;58.10;;;;;;5034723;28;20422;-74
2021/10/14 12:51:21;;;;;;;5.90;3.17;;;15.80;59.70;;;;;;5025389;28;20543;-73
2021/10/14 12:54:02;;;;;;;7.30;3.40;;;16.00;60.30;;;;;;5031919;28;20428;-76
2021/10/14 12:56:36;;;;;;;8.60;3.10;;;16.00;59.60;;;;;;5032026;28;20563;-75
2021/10/14 12:59:05;;;;;;;11.00;3.20;;;16.00;60.10;;;;;;5032335;28;20761;-74
2021/10/14 13:01:31;;;;;;;5.83;3.60;;;16.10;60.30;;;;;;5031813;28;20591;-73